sensor_id;sensor_type;location;lat;lon;timestamp;temperature;humidity
35645;DHT22;21764;52.042;6.830;2022-09-03T00:04:36;17.40;70.40
35645;DHT22;21764;52.042;6.830;2022-09-03T00:09:49;17.50;70.40
35645;DHT22;21764;52.042;6.830;2022-09-03T00:20:21;17.30;71.00
35645;DHT22;21764;52.042;6.830;2022-09-03T00:31:29;17.30;71.10
35645;DHT22;21764;52.042;6.830;2022-09-03T00:36:37;17.00;72.10
35645;DHT22;21764;52.042;6.830;2022-09-03T01:03:52;16.70;74.00
35645;DHT22;21764;52.042;6.830;2022-09-03T01:30:37;16.50;75.60
35645;DHT22;21764;52.042;6.830;2022-09-03T01:35:52;16.40;76.00
35645;DHT22;21764;52.042;6.830;2022-09-03T01:46:18;16.20;76.80
35645;DHT22;21764;52.042;6.830;2022-09-03T01:51:29;16.10;77.50
35645;DHT22;21764;52.042;6.830;2022-09-03T01:57:25;16.00;77.90
35645;DHT22;21764;52.042;6.830;2022-09-03T02:02:22;16.00;78.40
35645;DHT22;21764;52.042;6.830;2022-09-03T02:07:27;15.80;79.10
35645;DHT22;21764;52.042;6.830;2022-09-03T02:12:34;15.70;79.70
35645;DHT22;21764;52.042;6.830;2022-09-03T02:17:37;15.70;80.20
35645;DHT22;21764;52.042;6.830;2022-09-03T02:22:39;15.60;80.70
35645;DHT22;21764;52.042;6.830;2022-09-03T02:27:40;15.50;81.30
35645;DHT22;21764;52.042;6.830;2022-09-03T02:32:40;15.40;82.10
35645;DHT22;21764;52.042;6.830;2022-09-03T02:37:41;15.30;82.80
35645;DHT22;21764;52.042;6.830;2022-09-03T02:42:43;15.10;83.60
35645;DHT22;21764;52.042;6.830;2022-09-03T02:47:44;15.10;84.40
35645;DHT22;21764;52.042;6.830;2022-09-03T02:52:47;14.90;85.10
35645;DHT22;21764;52.042;6.830;2022-09-03T02:57:48;14.80;86.00
35645;DHT22;21764;52.042;6.830;2022-09-03T03:02:48;14.70;87.10
35645;DHT22;21764;52.042;6.830;2022-09-03T03:07:49;14.80;87.80
35645;DHT22;21764;52.042;6.830;2022-09-03T03:12:50;14.70;88.30
35645;DHT22;21764;52.042;6.830;2022-09-03T03:17:51;14.60;89.50
35645;DHT22;21764;52.042;6.830;2022-09-03T03:22:51;14.50;90.10
35645;DHT22;21764;52.042;6.830;2022-09-03T03:27:54;14.50;90.40
35645;DHT22;21764;52.042;6.830;2022-09-03T03:32:56;14.40;90.60
35645;DHT22;21764;52.042;6.830;2022-09-03T03:37:58;14.30;91.00
35645;DHT22;21764;52.042;6.830;2022-09-03T03:42:58;14.20;91.60
35645;DHT22;21764;52.042;6.830;2022-09-03T03:47:59;14.10;92.10
35645;DHT22;21764;52.042;6.830;2022-09-03T03:53:00;14.10;92.30
35645;DHT22;21764;52.042;6.830;2022-09-03T03:58:01;14.00;92.80
35645;DHT22;21764;52.042;6.830;2022-09-03T04:03:02;14.00;93.10
35645;DHT22;21764;52.042;6.830;2022-09-03T04:08:03;13.90;93.50
35645;DHT22;21764;52.042;6.830;2022-09-03T04:13:03;13.80;94.10
35645;DHT22;21764;52.042;6.830;2022-09-03T04:18:04;13.80;94.70
35645;DHT22;21764;52.042;6.830;2022-09-03T04:23:05;13.70;95.20
35645;DHT22;21764;52.042;6.830;2022-09-03T04:28:07;13.70;95.50
35645;DHT22;21764;52.042;6.830;2022-09-03T04:33:08;13.70;96.30
35645;DHT22;21764;52.042;6.830;2022-09-03T04:38:09;13.70;96.20
35645;DHT22;21764;52.042;6.830;2022-09-03T04:43:10;13.70;96.50
35645;DHT22;21764;52.042;6.830;2022-09-03T04:48:11;13.60;96.70
35645;DHT22;21764;52.042;6.830;2022-09-03T04:53:12;13.60;97.10
35645;DHT22;21764;52.042;6.830;2022-09-03T04:58:13;13.60;97.10
35645;DHT22;21764;52.042;6.830;2022-09-03T05:03:13;13.60;97.30
35645;DHT22;21764;52.042;6.830;2022-09-03T05:08:14;13.60;97.50
35645;DHT22;21764;52.042;6.830;2022-09-03T05:13:14;13.70;97.40
35645;DHT22;21764;52.042;6.830;2022-09-03T05:18:15;14.60;95.90
35645;DHT22;21764;52.042;6.830;2022-09-03T05:23:16;16.20;91.80
35645;DHT22;21764;52.042;6.830;2022-09-03T05:28:17;15.50;92.50
35645;DHT22;21764;52.042;6.830;2022-09-03T05:33:17;16.60;90.70
35645;DHT22;21764;52.042;6.830;2022-09-03T05:38:18;17.20;87.30
35645;DHT22;21764;52.042;6.830;2022-09-03T05:43:19;18.30;84.20
35645;DHT22;21764;52.042;6.830;2022-09-03T05:48:20;19.30;78.30
35645;DHT22;21764;52.042;6.830;2022-09-03T05:53:21;20.10;75.30
35645;DHT22;21764;52.042;6.830;2022-09-03T05:58:22;20.80;72.40
35645;DHT22;21764;52.042;6.830;2022-09-03T06:03:23;21.00;70.30
35645;DHT22;21764;52.042;6.830;2022-09-03T06:08:23;22.30;66.30
35645;DHT22;21764;52.042;6.830;2022-09-03T06:13:25;22.20;65.90
35645;DHT22;21764;52.042;6.830;2022-09-03T06:18:26;24.00;61.80
35645;DHT22;21764;52.042;6.830;2022-09-03T06:23:28;23.80;60.50
35645;DHT22;21764;52.042;6.830;2022-09-03T06:28:33;23.80;59.50
35645;DHT22;21764;52.042;6.830;2022-09-03T06:33:40;26.00;56.20
35645;DHT22;21764;52.042;6.830;2022-09-03T06:38:43;27.70;53.50
35645;DHT22;21764;52.042;6.830;2022-09-03T06:43:44;26.90;53.40
35645;DHT22;21764;52.042;6.830;2022-09-03T06:48:45;26.50;53.60
35645;DHT22;21764;52.042;6.830;2022-09-03T06:53:49;27.90;52.40
35645;DHT22;21764;52.042;6.830;2022-09-03T06:58:50;28.20;52.20
35645;DHT22;21764;52.042;6.830;2022-09-03T07:03:55;29.10;51.00
35645;DHT22;21764;52.042;6.830;2022-09-03T07:08:57;29.60;49.30
35645;DHT22;21764;52.042;6.830;2022-09-03T07:13:59;28.80;49.80
35645;DHT22;21764;52.042;6.830;2022-09-03T07:19:00;30.20;47.50
35645;DHT22;21764;52.042;6.830;2022-09-03T07:24:04;29.60;48.00
35645;DHT22;21764;52.042;6.830;2022-09-03T07:29:06;30.50;47.30
35645;DHT22;21764;52.042;6.830;2022-09-03T07:34:09;29.40;48.50
35645;DHT22;21764;52.042;6.830;2022-09-03T07:39:12;30.00;47.50
35645;DHT22;21764;52.042;6.830;2022-09-03T07:44:14;29.40;48.70
35645;DHT22;21764;52.042;6.830;2022-09-03T07:49:15;32.20;46.20
35645;DHT22;21764;52.042;6.830;2022-09-03T07:54:36;29.80;45.80
35645;DHT22;21764;52.042;6.830;2022-09-03T07:59:38;32.80;44.00
35645;DHT22;21764;52.042;6.830;2022-09-03T08:04:40;31.70;45.20
35645;DHT22;21764;52.042;6.830;2022-09-03T08:09:40;32.30;43.60
35645;DHT22;21764;52.042;6.830;2022-09-03T08:14:41;31.50;45.30
35645;DHT22;21764;52.042;6.830;2022-09-03T08:19:42;31.60;44.80
35645;DHT22;21764;52.042;6.830;2022-09-03T08:24:45;32.80;43.60
35645;DHT22;21764;52.042;6.830;2022-09-03T08:29:46;36.40;41.10
35645;DHT22;21764;52.042;6.830;2022-09-03T08:34:48;34.60;41.00
35645;DHT22;21764;52.042;6.830;2022-09-03T08:39:50;33.40;42.90
35645;DHT22;21764;52.042;6.830;2022-09-03T08:44:54;34.40;41.30
35645;DHT22;21764;52.042;6.830;2022-09-03T09:06:46;33.60;43.20
35645;DHT22;21764;52.042;6.830;2022-09-03T09:22:40;32.20;43.60
35645;DHT22;21764;52.042;6.830;2022-09-03T09:33:17;35.50;40.90
35645;DHT22;21764;52.042;6.830;2022-09-03T09:38:34;33.60;41.50
35645;DHT22;21764;52.042;6.830;2022-09-03T09:43:38;33.30;41.70
35645;DHT22;21764;52.042;6.830;2022-09-03T09:48:57;34.80;40.90
35645;DHT22;21764;52.042;6.830;2022-09-03T09:54:12;36.00;39.30
35645;DHT22;21764;52.042;6.830;2022-09-03T09:59:22;36.50;39.70
35645;DHT22;21764;52.042;6.830;2022-09-03T10:04:29;36.80;39.30
35645;DHT22;21764;52.042;6.830;2022-09-03T10:09:32;32.90;41.80
35645;DHT22;21764;52.042;6.830;2022-09-03T10:14:46;35.70;39.40
35645;DHT22;21764;52.042;6.830;2022-09-03T10:20:03;33.70;41.40
35645;DHT22;21764;52.042;6.830;2022-09-03T10:25:29;33.40;40.80
35645;DHT22;21764;52.042;6.830;2022-09-03T10:47:09;33.50;41.10
35645;DHT22;21764;52.042;6.830;2022-09-03T11:07:48;27.70;48.50
35645;DHT22;21764;52.042;6.830;2022-09-03T11:18:35;24.70;54.00
35645;DHT22;21764;52.042;6.830;2022-09-03T11:23:45;24.40;55.00
35645;DHT22;21764;52.042;6.830;2022-09-03T11:29:11;24.70;54.60
35645;DHT22;21764;52.042;6.830;2022-09-03T11:34:25;25.10;55.00
35645;DHT22;21764;52.042;6.830;2022-09-03T11:39:35;25.10;54.70
35645;DHT22;21764;52.042;6.830;2022-09-03T11:44:41;24.80;55.40
35645;DHT22;21764;52.042;6.830;2022-09-03T11:49:50;24.70;54.80
35645;DHT22;21764;52.042;6.830;2022-09-03T11:54:52;24.90;55.60
35645;DHT22;21764;52.042;6.830;2022-09-03T11:59:52;24.80;54.70
35645;DHT22;21764;52.042;6.830;2022-09-03T12:10:27;25.10;54.80
35645;DHT22;21764;52.042;6.830;2022-09-03T12:21:06;25.20;54.70
35645;DHT22;21764;52.042;6.830;2022-09-03T12:26:16;25.00;55.40
35645;DHT22;21764;52.042;6.830;2022-09-03T12:31:22;24.60;55.30
35645;DHT22;21764;52.042;6.830;2022-09-03T12:36:35;25.10;55.50
35645;DHT22;21764;52.042;6.830;2022-09-03T12:41:36;25.20;56.30
35645;DHT22;21764;52.042;6.830;2022-09-03T12:46:37;25.30;55.80
35645;DHT22;21764;52.042;6.830;2022-09-03T12:51:40;25.10;55.40
35645;DHT22;21764;52.042;6.830;2022-09-03T12:56:43;24.90;55.70
35645;DHT22;21764;52.042;6.830;2022-09-03T13:01:51;25.00;56.00
35645;DHT22;21764;52.042;6.830;2022-09-03T13:06:59;25.20;55.80
35645;DHT22;21764;52.042;6.830;2022-09-03T13:12:03;25.30;56.30
35645;DHT22;21764;52.042;6.830;2022-09-03T13:17:34;25.20;55.70
35645;DHT22;21764;52.042;6.830;2022-09-03T13:28:43;25.70;55.50
35645;DHT22;21764;52.042;6.830;2022-09-03T13:34:14;25.50;55.70
35645;DHT22;21764;52.042;6.830;2022-09-03T13:39:27;25.60;55.30
35645;DHT22;21764;52.042;6.830;2022-09-03T14:00:48;25.80;54.90
35645;DHT22;21764;52.042;6.830;2022-09-03T14:16:46;25.90;54.30
35645;DHT22;21764;52.042;6.830;2022-09-03T14:22:05;26.20;55.10
35645;DHT22;21764;52.042;6.830;2022-09-03T14:27:08;26.20;54.30
35645;DHT22;21764;52.042;6.830;2022-09-03T14:32:57;26.30;53.50
35645;DHT22;21764;52.042;6.830;2022-09-03T15:00:04;27.00;53.50
35645;DHT22;21764;52.042;6.830;2022-09-03T15:10:37;26.80;53.00
35645;DHT22;21764;52.042;6.830;2022-09-03T15:16:11;27.30;52.70
35645;DHT22;21764;52.042;6.830;2022-09-03T15:26:55;27.60;52.70
35645;DHT22;21764;52.042;6.830;2022-09-03T15:42:27;27.30;54.00
35645;DHT22;21764;52.042;6.830;2022-09-03T15:47:54;27.00;54.00
35645;DHT22;21764;52.042;6.830;2022-09-03T15:58:34;26.50;54.80
35645;DHT22;21764;52.042;6.830;2022-09-03T16:08:52;26.40;54.90
35645;DHT22;21764;52.042;6.830;2022-09-03T16:24:22;26.20;55.90
35645;DHT22;21764;52.042;6.830;2022-09-03T16:29:26;26.10;56.70
35645;DHT22;21764;52.042;6.830;2022-09-03T16:40:02;26.20;56.40
35645;DHT22;21764;52.042;6.830;2022-09-03T16:45:32;26.10;57.20
35645;DHT22;21764;52.042;6.830;2022-09-03T17:02:02;25.50;58.90
35645;DHT22;21764;52.042;6.830;2022-09-03T17:07:32;25.40;59.60
35645;DHT22;21764;52.042;6.830;2022-09-03T17:13:08;25.20;59.90
35645;DHT22;21764;52.042;6.830;2022-09-03T17:18:31;25.20;60.50
35645;DHT22;21764;52.042;6.830;2022-09-03T17:23:58;25.00;61.30
35645;DHT22;21764;52.042;6.830;2022-09-03T17:29:16;24.90;62.20
35645;DHT22;21764;52.042;6.830;2022-09-03T17:45:02;24.30;65.30
35645;DHT22;21764;52.042;6.830;2022-09-03T17:50:16;24.10;66.20
35645;DHT22;21764;52.042;6.830;2022-09-03T18:06:34;23.70;67.90
35645;DHT22;21764;52.042;6.830;2022-09-03T18:11:40;23.60;68.50
35645;DHT22;21764;52.042;6.830;2022-09-03T18:16:53;23.40;69.00
35645;DHT22;21764;52.042;6.830;2022-09-03T18:22:01;23.30;69.50
35645;DHT22;21764;52.042;6.830;2022-09-03T18:27:43;23.20;70.10
35645;DHT22;21764;52.042;6.830;2022-09-03T18:33:03;23.00;70.30
35645;DHT22;21764;52.042;6.830;2022-09-03T18:38:25;22.80;70.20
35645;DHT22;21764;52.042;6.830;2022-09-03T19:00:29;22.20;71.70
35645;DHT22;21764;52.042;6.830;2022-09-03T19:06:16;22.10;72.50
35645;DHT22;21764;52.042;6.830;2022-09-03T19:23:25;21.70;73.10
35645;DHT22;21764;52.042;6.830;2022-09-03T19:28:46;21.70;73.20
35645;DHT22;21764;52.042;6.830;2022-09-03T19:40:25;21.40;73.80
35645;DHT22;21764;52.042;6.830;2022-09-03T19:51:34;21.30;74.20
35645;DHT22;21764;52.042;6.830;2022-09-03T19:56:56;21.10;74.80
35645;DHT22;21764;52.042;6.830;2022-09-03T20:02:16;21.10;74.80
35645;DHT22;21764;52.042;6.830;2022-09-03T20:07:36;21.10;75.10
35645;DHT22;21764;52.042;6.830;2022-09-03T20:13:11;21.00;75.50
35645;DHT22;21764;52.042;6.830;2022-09-03T20:23:40;20.80;76.30
35645;DHT22;21764;52.042;6.830;2022-09-03T20:39:44;20.40;78.50
35645;DHT22;21764;52.042;6.830;2022-09-03T20:50:20;20.20;79.70
35645;DHT22;21764;52.042;6.830;2022-09-03T20:55:28;20.20;80.30
35645;DHT22;21764;52.042;6.830;2022-09-03T21:00:45;20.10;80.80
35645;DHT22;21764;52.042;6.830;2022-09-03T21:11:10;19.80;82.10
35645;DHT22;21764;52.042;6.830;2022-09-03T21:27:14;19.60;83.60
35645;DHT22;21764;52.042;6.830;2022-09-03T21:32:17;19.50;84.20
35645;DHT22;21764;52.042;6.830;2022-09-03T21:37:19;19.40;84.90
35645;DHT22;21764;52.042;6.830;2022-09-03T21:47:30;19.30;85.80
35645;DHT22;21764;52.042;6.830;2022-09-03T21:52:50;19.20;86.60
35645;DHT22;21764;52.042;6.830;2022-09-03T22:03:20;19.10;88.20
35645;DHT22;21764;52.042;6.830;2022-09-03T22:08:38;19.00;89.10
35645;DHT22;21764;52.042;6.830;2022-09-03T22:13:51;18.90;89.90
35645;DHT22;21764;52.042;6.830;2022-09-03T22:18:58;18.80;90.30
35645;DHT22;21764;52.042;6.830;2022-09-03T22:34:30;18.70;91.40
35645;DHT22;21764;52.042;6.830;2022-09-03T22:39:36;18.50;91.90
35645;DHT22;21764;52.042;6.830;2022-09-03T22:50:24;18.30;93.00
35645;DHT22;21764;52.042;6.830;2022-09-03T22:55:28;18.20;93.60
35645;DHT22;21764;52.042;6.830;2022-09-03T23:00:31;18.10;94.40
35645;DHT22;21764;52.042;6.830;2022-09-03T23:05:43;18.00;94.90
35645;DHT22;21764;52.042;6.830;2022-09-03T23:11:04;17.90;95.70
35645;DHT22;21764;52.042;6.830;2022-09-03T23:21:42;17.70;98.00
35645;DHT22;21764;52.042;6.830;2022-09-03T23:26:47;17.70;98.80
35645;DHT22;21764;52.042;6.830;2022-09-03T23:31:52;17.70;99.80
35645;DHT22;21764;52.042;6.830;2022-09-03T23:37:18;17.70;99.90
35645;DHT22;21764;52.042;6.830;2022-09-03T23:53:02;17.50;99.90
